sensor_id;sensor_type;location;lat;lon;timestamp;pressure;altitude;pressure_sealevel;temperature;humidity
54042;BME280;41156;51.508;5.406;2022-10-31T00:01:52;101943.25;;;13.53;100.00
54042;BME280;41156;51.508;5.406;2022-10-31T00:04:52;101945.75;;;13.48;100.00
54042;BME280;41156;51.508;5.406;2022-10-31T00:07:53;101942.41;;;13.46;100.00
54042;BME280;41156;51.508;5.406;2022-10-31T00:10:53;101944.47;;;13.44;100.00
54042;BME280;41156;51.508;5.406;2022-10-31T00:13:54;101943.84;;;13.42;100.00
54042;BME280;41156;51.508;5.406;2022-10-31T00:16:54;101942.41;;;13.39;100.00
54042;BME280;41156;51.508;5.406;2022-10-31T00:19:54;101940.09;;;13.36;100.00
54042;BME280;41156;51.508;5.406;2022-10-31T00:22:59;101936.09;;;13.32;100.00
54042;BME280;41156;51.508;5.406;2022-10-31T00:26:01;101942.16;;;13.27;100.00
54042;BME280;41156;51.508;5.406;2022-10-31T00:29:02;101952.56;;;13.24;100.00
54042;BME280;41156;51.508;5.406;2022-10-31T00:32:02;101944.19;;;13.19;100.00
54042;BME280;41156;51.508;5.406;2022-10-31T00:35:03;101944.63;;;13.16;100.00
54042;BME280;41156;51.508;5.406;2022-10-31T00:38:03;101936.22;;;13.10;100.00
54042;BME280;41156;51.508;5.406;2022-10-31T00:41:03;101933.09;;;13.07;100.00
54042;BME280;41156;51.508;5.406;2022-10-31T00:44:04;101931.44;;;13.06;100.00
54042;BME280;41156;51.508;5.406;2022-10-31T00:47:04;101925.38;;;13.04;100.00
54042;BME280;41156;51.508;5.406;2022-10-31T00:50:05;101935.59;;;13.02;100.00
54042;BME280;41156;51.508;5.406;2022-10-31T00:53:06;101931.22;;;13.01;100.00
54042;BME280;41156;51.508;5.406;2022-10-31T00:56:06;101927.03;;;12.98;100.00
54042;BME280;41156;51.508;5.406;2022-10-31T00:59:07;101930.97;;;12.95;100.00
54042;BME280;41156;51.508;5.406;2022-10-31T01:02:07;101933.06;;;12.93;100.00
54042;BME280;41156;51.508;5.406;2022-10-31T01:05:07;101947.69;;;12.92;100.00
54042;BME280;41156;51.508;5.406;2022-10-31T01:08:08;101930.34;;;12.93;100.00
54042;BME280;41156;51.508;5.406;2022-10-31T01:11:20;101920.56;;;12.92;100.00
54042;BME280;41156;51.508;5.406;2022-10-31T01:14:21;101918.88;;;12.91;100.00
54042;BME280;41156;51.508;5.406;2022-10-31T01:17:21;101908.22;;;12.90;100.00
54042;BME280;41156;51.508;5.406;2022-10-31T01:20:21;101902.38;;;12.86;100.00
54042;BME280;41156;51.508;5.406;2022-10-31T01:23:21;101911.75;;;12.84;100.00
54042;BME280;41156;51.508;5.406;2022-10-31T01:26:27;101909.22;;;12.82;100.00
54042;BME280;41156;51.508;5.406;2022-10-31T01:29:28;101917.16;;;12.77;100.00
54042;BME280;41156;51.508;5.406;2022-10-31T01:32:28;101920.28;;;12.74;100.00
54042;BME280;41156;51.508;5.406;2022-10-31T01:35:31;101923.41;;;12.71;100.00
54042;BME280;41156;51.508;5.406;2022-10-31T01:38:31;101932.56;;;12.70;100.00
54042;BME280;41156;51.508;5.406;2022-10-31T01:41:35;101932.97;;;12.67;100.00
54042;BME280;41156;51.508;5.406;2022-10-31T01:47:41;101935.06;;;12.65;100.00
54042;BME280;41156;51.508;5.406;2022-10-31T01:50:43;101929.19;;;12.61;100.00
54042;BME280;41156;51.508;5.406;2022-10-31T01:53:45;101928.56;;;12.59;100.00
54042;BME280;41156;51.508;5.406;2022-10-31T01:56:49;101927.91;;;12.57;100.00
54042;BME280;41156;51.508;5.406;2022-10-31T01:59:55;101922.06;;;12.53;100.00
54042;BME280;41156;51.508;5.406;2022-10-31T02:02:57;101925.84;;;12.52;100.00
54042;BME280;41156;51.508;5.406;2022-10-31T02:05:59;101918.28;;;12.48;100.00
54042;BME280;41156;51.508;5.406;2022-10-31T02:09:00;101912.00;;;12.47;100.00
54042;BME280;41156;51.508;5.406;2022-10-31T02:12:02;101916.81;;;12.45;100.00
54042;BME280;41156;51.508;5.406;2022-10-31T02:15:03;101917.41;;;12.40;100.00
54042;BME280;41156;51.508;5.406;2022-10-31T02:18:04;101907.19;;;12.36;100.00
54042;BME280;41156;51.508;5.406;2022-10-31T02:21:31;101910.69;;;12.30;100.00
54042;BME280;41156;51.508;5.406;2022-10-31T02:24:46;101913.16;;;12.25;100.00
54042;BME280;41156;51.508;5.406;2022-10-31T02:31:46;101903.91;;;12.12;100.00
54042;BME280;41156;51.508;5.406;2022-10-31T02:38:16;101912.63;;;12.01;100.00
54042;BME280;41156;51.508;5.406;2022-10-31T02:41:39;101907.59;;;11.98;100.00
54042;BME280;41156;51.508;5.406;2022-10-31T02:44:58;101914.03;;;11.97;100.00
54042;BME280;41156;51.508;5.406;2022-10-31T02:48:11;101915.28;;;11.94;100.00
54042;BME280;41156;51.508;5.406;2022-10-31T02:51:15;101900.69;;;11.95;100.00
54042;BME280;41156;51.508;5.406;2022-10-31T02:54:22;101901.53;;;11.96;100.00
54042;BME280;41156;51.508;5.406;2022-10-31T02:57:26;101904.06;;;11.97;100.00
54042;BME280;41156;51.508;5.406;2022-10-31T03:00:34;101906.75;;;11.97;100.00
54042;BME280;41156;51.508;5.406;2022-10-31T03:10:32;101902.59;;;12.01;100.00
54042;BME280;41156;51.508;5.406;2022-10-31T03:13:42;101904.88;;;11.98;100.00
54042;BME280;41156;51.508;5.406;2022-10-31T03:16:50;101905.91;;;11.97;100.00
54042;BME280;41156;51.508;5.406;2022-10-31T03:19:53;101908.81;;;11.95;100.00
54042;BME280;41156;51.508;5.406;2022-10-31T03:22:56;101902.75;;;11.93;100.00
54042;BME280;41156;51.508;5.406;2022-10-31T03:25:58;101906.03;;;11.89;100.00
54042;BME280;41156;51.508;5.406;2022-10-31T03:29:04;101900.34;;;11.83;100.00
54042;BME280;41156;51.508;5.406;2022-10-31T03:32:22;101906.56;;;11.77;100.00
54042;BME280;41156;51.508;5.406;2022-10-31T03:35:25;101911.09;;;11.70;100.00
54042;BME280;41156;51.508;5.406;2022-10-31T03:38:28;101908.97;;;11.65;100.00
54042;BME280;41156;51.508;5.406;2022-10-31T03:41:32;101911.22;;;11.62;100.00
54042;BME280;41156;51.508;5.406;2022-10-31T03:44:37;101904.56;;;11.58;100.00
54042;BME280;41156;51.508;5.406;2022-10-31T03:47:39;101900.75;;;11.52;100.00
54042;BME280;41156;51.508;5.406;2022-10-31T03:53:57;101900.50;;;11.47;100.00
54042;BME280;41156;51.508;5.406;2022-10-31T03:57:19;101891.94;;;11.43;100.00
54042;BME280;41156;51.508;5.406;2022-10-31T04:00:22;101897.91;;;11.39;100.00
54042;BME280;41156;51.508;5.406;2022-10-31T04:03:26;101896.44;;;11.36;100.00
54042;BME280;41156;51.508;5.406;2022-10-31T04:06:29;101894.97;;;11.34;100.00
54042;BME280;41156;51.508;5.406;2022-10-31T04:09:33;101893.50;;;11.31;100.00
54042;BME280;41156;51.508;5.406;2022-10-31T04:12:35;101905.34;;;11.30;100.00
54042;BME280;41156;51.508;5.406;2022-10-31T04:15:38;101905.34;;;11.30;100.00
54042;BME280;41156;51.508;5.406;2022-10-31T04:18:39;101909.91;;;11.29;100.00
54042;BME280;41156;51.508;5.406;2022-10-31T04:21:39;101901.63;;;11.31;100.00
54042;BME280;41156;51.508;5.406;2022-10-31T04:24:40;101896.19;;;11.31;100.00
54042;BME280;41156;51.508;5.406;2022-10-31T04:27:40;101904.56;;;11.36;100.00
54042;BME280;41156;51.508;5.406;2022-10-31T04:30:40;101905.00;;;11.40;100.00
54042;BME280;41156;51.508;5.406;2022-10-31T04:33:41;101904.06;;;11.47;100.00
54042;BME280;41156;51.508;5.406;2022-10-31T04:36:41;101907.00;;;11.53;100.00
54042;BME280;41156;51.508;5.406;2022-10-31T04:39:41;101903.69;;;11.57;100.00
54042;BME280;41156;51.508;5.406;2022-10-31T04:42:41;101906.88;;;11.61;100.00
54042;BME280;41156;51.508;5.406;2022-10-31T04:45:42;101905.63;;;11.63;100.00
54042;BME280;41156;51.508;5.406;2022-10-31T04:48:42;101899.19;;;11.64;100.00
54042;BME280;41156;51.508;5.406;2022-10-31T04:51:42;101897.31;;;11.65;100.00
54042;BME280;41156;51.508;5.406;2022-10-31T04:54:43;101899.00;;;11.66;100.00
54042;BME280;41156;51.508;5.406;2022-10-31T04:57:45;101899.00;;;11.66;100.00
54042;BME280;41156;51.508;5.406;2022-10-31T05:00:46;101897.31;;;11.65;100.00
54042;BME280;41156;51.508;5.406;2022-10-31T05:03:46;101895.63;;;11.64;100.00
54042;BME280;41156;51.508;5.406;2022-10-31T05:06:46;101900.41;;;11.62;100.00
54042;BME280;41156;51.508;5.406;2022-10-31T05:09:46;101894.34;;;11.60;100.00
54042;BME280;41156;51.508;5.406;2022-10-31T05:12:48;101888.31;;;11.58;100.00
54042;BME280;41156;51.508;5.406;2022-10-31T05:15:49;101889.72;;;11.54;100.00
54042;BME280;41156;51.508;5.406;2022-10-31T05:18:49;101890.09;;;11.51;100.00
54042;BME280;41156;51.508;5.406;2022-10-31T05:21:49;101895.47;;;11.44;100.00
54042;BME280;41156;51.508;5.406;2022-10-31T05:24:50;101894.00;;;11.41;100.00
54042;BME280;41156;51.508;5.406;2022-10-31T05:27:51;101892.50;;;11.39;100.00
54042;BME280;41156;51.508;5.406;2022-10-31T05:30:52;101882.06;;;11.36;100.00
54042;BME280;41156;51.508;5.406;2022-10-31T05:33:52;101880.59;;;11.33;100.00
54042;BME280;41156;51.508;5.406;2022-10-31T05:36:53;101876.22;;;11.32;100.00
54042;BME280;41156;51.508;5.406;2022-10-31T05:39:53;101885.19;;;11.33;100.00
54042;BME280;41156;51.508;5.406;2022-10-31T05:42:55;101874.56;;;11.31;100.00
54042;BME280;41156;51.508;5.406;2022-10-31T05:45:56;101872.22;;;11.28;100.00
54042;BME280;41156;51.508;5.406;2022-10-31T05:48:56;101876.16;;;11.25;100.00
54042;BME280;41156;51.508;5.406;2022-10-31T05:51:56;101873.63;;;11.24;100.00
54042;BME280;41156;51.508;5.406;2022-10-31T05:54:58;101868.63;;;11.21;100.00
54042;BME280;41156;51.508;5.406;2022-10-31T05:57:58;101864.25;;;11.20;100.00
54042;BME280;41156;51.508;5.406;2022-10-31T06:00:58;101862.75;;;11.17;100.00
54042;BME280;41156;51.508;5.406;2022-10-31T06:03:59;101857.94;;;11.13;100.00
54042;BME280;41156;51.508;5.406;2022-10-31T06:06:59;101856.63;;;11.08;100.00
54042;BME280;41156;51.508;5.406;2022-10-31T06:09:59;101859.09;;;11.03;100.00
54042;BME280;41156;51.508;5.406;2022-10-31T06:13:00;101849.50;;;11.01;100.00
54042;BME280;41156;51.508;5.406;2022-10-31T06:16:00;101845.31;;;10.98;100.00
54042;BME280;41156;51.508;5.406;2022-10-31T06:19:01;101848.41;;;10.95;100.00
54042;BME280;41156;51.508;5.406;2022-10-31T06:22:01;101852.13;;;10.94;100.00
54042;BME280;41156;51.508;5.406;2022-10-31T06:25:01;101856.69;;;10.93;100.00
54042;BME280;41156;51.508;5.406;2022-10-31T06:28:02;101855.03;;;10.92;100.00
54042;BME280;41156;51.508;5.406;2022-10-31T06:31:02;101853.16;;;10.93;100.00
54042;BME280;41156;51.508;5.406;2022-10-31T06:34:02;101862.31;;;10.92;100.00
54042;BME280;41156;51.508;5.406;2022-10-31T06:37:03;101858.38;;;10.95;100.00
54042;BME280;41156;51.508;5.406;2022-10-31T06:40:03;101869.84;;;10.97;100.00
54042;BME280;41156;51.508;5.406;2022-10-31T06:43:04;101864.63;;;10.95;100.00
54042;BME280;41156;51.508;5.406;2022-10-31T06:46:04;101861.72;;;10.97;100.00
54042;BME280;41156;51.508;5.406;2022-10-31T06:49:05;101864.88;;;11.00;100.00
54042;BME280;41156;51.508;5.406;2022-10-31T06:52:05;101858.47;;;11.01;100.00
54042;BME280;41156;51.508;5.406;2022-10-31T06:55:06;101859.28;;;11.02;100.00
54042;BME280;41156;51.508;5.406;2022-10-31T06:58:08;101858.06;;;11.04;100.00
54042;BME280;41156;51.508;5.406;2022-10-31T07:01:09;101867.47;;;11.08;100.00
54042;BME280;41156;51.508;5.406;2022-10-31T07:04:10;101857.94;;;11.13;100.00
54042;BME280;41156;51.508;5.406;2022-10-31T07:07:10;101859.41;;;11.15;100.00
54042;BME280;41156;51.508;5.406;2022-10-31T07:10:11;101858.63;;;11.21;100.00
54042;BME280;41156;51.508;5.406;2022-10-31T07:13:13;101862.44;;;11.27;100.00
54042;BME280;41156;51.508;5.406;2022-10-31T07:16:14;101859.97;;;11.32;100.00
54042;BME280;41156;51.508;5.406;2022-10-31T07:19:14;101859.19;;;11.38;100.00
54042;BME280;41156;51.508;5.406;2022-10-31T07:22:14;101853.00;;;11.44;100.00
54042;BME280;41156;51.508;5.406;2022-10-31T07:25:15;101861.38;;;11.50;100.00
54042;BME280;41156;51.508;5.406;2022-10-31T07:28:15;101866.84;;;11.56;100.00
54042;BME280;41156;51.508;5.406;2022-10-31T07:31:15;101870.81;;;11.60;100.00
54042;BME280;41156;51.508;5.406;2022-10-31T07:34:16;101873.78;;;11.65;100.00
54042;BME280;41156;51.508;5.406;2022-10-31T07:37:16;101873.19;;;11.70;100.00
54042;BME280;41156;51.508;5.406;2022-10-31T07:40:17;101876.78;;;11.77;100.00
54042;BME280;41156;51.508;5.406;2022-10-31T07:43:18;101873.47;;;11.82;100.00
54042;BME280;41156;51.508;5.406;2022-10-31T07:46:19;101867.47;;;11.87;100.00
54042;BME280;41156;51.508;5.406;2022-10-31T07:49:19;101870.44;;;11.92;100.00
54042;BME280;41156;51.508;5.406;2022-10-31T07:52:20;101874.44;;;11.96;100.00
54042;BME280;41156;51.508;5.406;2022-10-31T07:55:20;101877.41;;;12.01;100.00
54042;BME280;41156;51.508;5.406;2022-10-31T07:58:20;101873.03;;;12.07;100.00
54042;BME280;41156;51.508;5.406;2022-10-31T08:01:20;101872.69;;;12.16;100.00
54042;BME280;41156;51.508;5.406;2022-10-31T08:04:21;101885.66;;;12.28;100.00
54042;BME280;41156;51.508;5.406;2022-10-31T08:07:21;101885.31;;;12.37;100.00
54042;BME280;41156;51.508;5.406;2022-10-31T08:10:22;101878.25;;;12.50;100.00
54042;BME280;41156;51.508;5.406;2022-10-31T08:13:22;101876.63;;;12.62;100.00
54042;BME280;41156;51.508;5.406;2022-10-31T08:16:22;101878.34;;;12.76;100.00
54042;BME280;41156;51.508;5.406;2022-10-31T08:19:22;101872.97;;;12.90;100.00
54042;BME280;41156;51.508;5.406;2022-10-31T08:22:23;101859.63;;;13.02;100.00
54042;BME280;41156;51.508;5.406;2022-10-31T08:25:23;101859.22;;;13.11;100.00
54042;BME280;41156;51.508;5.406;2022-10-31T08:28:24;101862.16;;;13.23;100.00
54042;BME280;41156;51.508;5.406;2022-10-31T08:31:24;101876.19;;;13.33;100.00
54042;BME280;41156;51.508;5.406;2022-10-31T08:34:26;101856.13;;;13.48;100.00
54042;BME280;41156;51.508;5.406;2022-10-31T08:37:26;101868.88;;;13.61;100.00
54042;BME280;41156;51.508;5.406;2022-10-31T08:40:29;101850.50;;;13.63;100.00
54042;BME280;41156;51.508;5.406;2022-10-31T08:43:30;101831.28;;;13.64;100.00
54042;BME280;41156;51.508;5.406;2022-10-31T08:46:30;101813.09;;;13.65;100.00
54042;BME280;41156;51.508;5.406;2022-10-31T08:49:31;101812.06;;;13.66;100.00
54042;BME280;41156;51.508;5.406;2022-10-31T08:52:32;101813.91;;;13.65;100.00
54042;BME280;41156;51.508;5.406;2022-10-31T08:55:34;101825.44;;;13.67;100.00
54042;BME280;41156;51.508;5.406;2022-10-31T08:58:35;101849.66;;;13.69;100.00
54042;BME280;41156;51.508;5.406;2022-10-31T09:01:35;101835.88;;;13.71;100.00
54042;BME280;41156;51.508;5.406;2022-10-31T09:04:35;101835.41;;;13.74;100.00
54042;BME280;41156;51.508;5.406;2022-10-31T09:07:36;101833.34;;;13.76;100.00
54042;BME280;41156;51.508;5.406;2022-10-31T09:10:37;101835.63;;;13.79;100.00
54042;BME280;41156;51.508;5.406;2022-10-31T09:13:37;101838.75;;;13.89;100.00
54042;BME280;41156;51.508;5.406;2022-10-31T09:16:38;101840.38;;;13.97;100.00
54042;BME280;41156;51.508;5.406;2022-10-31T09:19:38;101846.66;;;14.04;100.00
54042;BME280;41156;51.508;5.406;2022-10-31T09:22:38;101817.78;;;14.10;100.00
54042;BME280;41156;51.508;5.406;2022-10-31T09:25:39;101817.34;;;14.13;100.00
54042;BME280;41156;51.508;5.406;2022-10-31T09:28:39;101795.59;;;14.19;100.00
54042;BME280;41156;51.508;5.406;2022-10-31T09:31:40;101798.44;;;14.31;100.00
54042;BME280;41156;51.508;5.406;2022-10-31T09:34:40;101783.78;;;14.39;100.00
54042;BME280;41156;51.508;5.406;2022-10-31T09:37:41;101780.41;;;14.43;100.00
54042;BME280;41156;51.508;5.406;2022-10-31T09:40:47;101759.66;;;14.49;100.00
54042;BME280;41156;51.508;5.406;2022-10-31T09:44:08;101767.41;;;14.52;100.00
54042;BME280;41156;51.508;5.406;2022-10-31T09:47:19;101778.06;;;14.54;100.00
54042;BME280;41156;51.508;5.406;2022-10-31T09:50:38;101784.53;;;14.53;100.00
54042;BME280;41156;51.508;5.406;2022-10-31T09:56:47;101768.59;;;14.56;100.00
54042;BME280;41156;51.508;5.406;2022-10-31T09:59:49;101782.00;;;14.58;100.00
54042;BME280;41156;51.508;5.406;2022-10-31T10:02:56;101771.53;;;14.61;100.00
54042;BME280;41156;51.508;5.406;2022-10-31T10:06:14;101760.00;;;14.66;100.00
54042;BME280;41156;51.508;5.406;2022-10-31T10:09:15;101747.19;;;14.73;100.00
54042;BME280;41156;51.508;5.406;2022-10-31T10:12:23;101744.97;;;14.89;100.00
54042;BME280;41156;51.508;5.406;2022-10-31T10:15:41;101739.75;;;15.12;100.00
54042;BME280;41156;51.508;5.406;2022-10-31T10:18:56;101737.91;;;15.31;100.00
54042;BME280;41156;51.508;5.406;2022-10-31T10:28:23;101709.47;;;15.64;100.00
54042;BME280;41156;51.508;5.406;2022-10-31T10:31:35;101696.22;;;15.68;100.00
54042;BME280;41156;51.508;5.406;2022-10-31T10:34:41;101708.78;;;15.69;100.00
54042;BME280;41156;51.508;5.406;2022-10-31T10:37:45;101718.38;;;15.71;100.00
54042;BME280;41156;51.508;5.406;2022-10-31T10:40:46;101723.38;;;15.75;100.00
54042;BME280;41156;51.508;5.406;2022-10-31T10:43:49;101727.97;;;15.81;100.00
54042;BME280;41156;51.508;5.406;2022-10-31T10:46:56;101736.28;;;15.86;100.00
54042;BME280;41156;51.508;5.406;2022-10-31T10:50:31;101727.19;;;15.92;100.00
54042;BME280;41156;51.508;5.406;2022-10-31T11:03:24;101703.09;;;16.07;100.00
54042;BME280;41156;51.508;5.406;2022-10-31T11:06:26;101703.00;;;16.14;100.00
54042;BME280;41156;51.508;5.406;2022-10-31T11:09:26;101701.00;;;16.21;100.00
54042;BME280;41156;51.508;5.406;2022-10-31T11:12:32;101700.22;;;16.33;100.00
54042;BME280;41156;51.508;5.406;2022-10-31T11:19:08;101683.78;;;16.51;100.00
54042;BME280;41156;51.508;5.406;2022-10-31T11:22:16;101677.38;;;16.57;100.00
54042;BME280;41156;51.508;5.406;2022-10-31T11:25:20;101653.66;;;16.58;100.00
54042;BME280;41156;51.508;5.406;2022-10-31T11:28:21;101645.69;;;16.56;100.00
54042;BME280;41156;51.508;5.406;2022-10-31T11:31:22;101647.84;;;16.54;100.00
54042;BME280;41156;51.508;5.406;2022-10-31T11:34:29;101632.06;;;16.56;100.00
54042;BME280;41156;51.508;5.406;2022-10-31T11:37:34;101633.00;;;16.62;100.00
54042;BME280;41156;51.508;5.406;2022-10-31T11:40:35;101624.13;;;16.67;100.00
54042;BME280;41156;51.508;5.406;2022-10-31T11:43:36;101612.25;;;16.73;100.00
54042;BME280;41156;51.508;5.406;2022-10-31T11:46:43;101606.59;;;16.86;100.00
54042;BME280;41156;51.508;5.406;2022-10-31T11:49:46;101597.34;;;16.99;100.00
54042;BME280;41156;51.508;5.406;2022-10-31T11:52:51;101596.72;;;17.09;100.00
54042;BME280;41156;51.508;5.406;2022-10-31T11:56:19;101588.75;;;17.19;100.00
54042;BME280;41156;51.508;5.406;2022-10-31T11:59:31;101581.81;;;17.28;100.00
54042;BME280;41156;51.508;5.406;2022-10-31T12:02:31;101573.34;;;17.42;100.00
54042;BME280;41156;51.508;5.406;2022-10-31T12:05:33;101566.28;;;17.57;100.00
54042;BME280;41156;51.508;5.406;2022-10-31T12:08:35;101551.13;;;17.67;100.00
54042;BME280;41156;51.508;5.406;2022-10-31T12:11:59;101552.06;;;17.72;99.67
54042;BME280;41156;51.508;5.406;2022-10-31T12:18:33;101533.69;;;17.68;97.56
54042;BME280;41156;51.508;5.406;2022-10-31T12:21:57;101523.22;;;17.65;98.35
54042;BME280;41156;51.508;5.406;2022-10-31T12:25:21;101524.91;;;17.66;99.40
54042;BME280;41156;51.508;5.406;2022-10-31T12:28:41;101515.13;;;17.70;98.39
54042;BME280;41156;51.508;5.406;2022-10-31T12:32:08;101507.25;;;17.73;97.36
54042;BME280;41156;51.508;5.406;2022-10-31T12:36:10;101509.59;;;17.82;97.04
54042;BME280;41156;51.508;5.406;2022-10-31T12:45:58;101478.47;;;18.34;96.94
54042;BME280;41156;51.508;5.406;2022-10-31T12:49:05;101455.53;;;18.40;97.23
54042;BME280;41156;51.508;5.406;2022-10-31T12:52:41;101441.75;;;18.52;94.92
54042;BME280;41156;51.508;5.406;2022-10-31T12:59:25;101424.63;;;18.39;94.68
54042;BME280;41156;51.508;5.406;2022-10-31T13:02:51;101427.03;;;18.36;93.63
54042;BME280;41156;51.508;5.406;2022-10-31T13:05:59;101421.75;;;18.29;92.83
54042;BME280;41156;51.508;5.406;2022-10-31T13:09:08;101412.63;;;18.23;94.01
54042;BME280;41156;51.508;5.406;2022-10-31T13:12:13;101401.63;;;18.18;93.88
54042;BME280;41156;51.508;5.406;2022-10-31T13:15:18;101385.47;;;18.17;93.43
54042;BME280;41156;51.508;5.406;2022-10-31T13:21:33;101366.75;;;18.08;93.60
54042;BME280;41156;51.508;5.406;2022-10-31T13:24:59;101369.94;;;18.00;92.48
54042;BME280;41156;51.508;5.406;2022-10-31T13:28:16;101359.50;;;17.97;92.07
54042;BME280;41156;51.508;5.406;2022-10-31T13:31:23;101358.66;;;17.97;94.27
54042;BME280;41156;51.508;5.406;2022-10-31T13:37:43;101342.91;;;18.04;93.97
54042;BME280;41156;51.508;5.406;2022-10-31T13:40:55;101344.56;;;18.05;91.23
54042;BME280;41156;51.508;5.406;2022-10-31T13:47:35;101318.25;;;17.99;89.70
54042;BME280;41156;51.508;5.406;2022-10-31T13:50:35;101314.91;;;17.97;92.72
54042;BME280;41156;51.508;5.406;2022-10-31T13:56:39;101301.19;;;17.91;92.42
54042;BME280;41156;51.508;5.406;2022-10-31T13:59:47;101308.97;;;17.83;91.14
54042;BME280;41156;51.508;5.406;2022-10-31T14:02:51;101304.44;;;17.71;91.23
54042;BME280;41156;51.508;5.406;2022-10-31T14:05:53;101298.06;;;17.66;91.79
54042;BME280;41156;51.508;5.406;2022-10-31T14:08:55;101301.56;;;17.61;92.37
54042;BME280;41156;51.508;5.406;2022-10-31T14:11:58;101303.72;;;17.59;92.23
54042;BME280;41156;51.508;5.406;2022-10-31T14:18:29;101286.56;;;17.47;90.93
54042;BME280;41156;51.508;5.406;2022-10-31T14:21:37;101285.75;;;17.46;91.62
54042;BME280;41156;51.508;5.406;2022-10-31T14:24:38;101286.66;;;17.52;92.73
54042;BME280;41156;51.508;5.406;2022-10-31T14:27:46;101279.88;;;17.54;91.17
54042;BME280;41156;51.508;5.406;2022-10-31T14:30:55;101279.06;;;17.54;90.82
54042;BME280;41156;51.508;5.406;2022-10-31T14:33:56;101276.56;;;17.52;92.06
54042;BME280;41156;51.508;5.406;2022-10-31T14:41:36;101270.28;;;17.35;90.16
54042;BME280;41156;51.508;5.406;2022-10-31T14:44:21;101265.22;;;17.27;91.43
54042;BME280;41156;51.508;5.406;2022-10-31T14:47:39;101267.31;;;17.19;90.39
54042;BME280;41156;51.508;5.406;2022-10-31T14:50:57;101253.09;;;17.17;91.85
54042;BME280;41156;51.508;5.406;2022-10-31T14:53:59;101241.84;;;17.14;91.97
54042;BME280;41156;51.508;5.406;2022-10-31T14:57:14;101235.91;;;17.17;91.83
54042;BME280;41156;51.508;5.406;2022-10-31T15:00:20;101222.81;;;17.19;92.27
54042;BME280;41156;51.508;5.406;2022-10-31T15:06:31;101203.19;;;17.22;92.03
54042;BME280;41156;51.508;5.406;2022-10-31T15:09:37;101186.13;;;17.15;91.87
54042;BME280;41156;51.508;5.406;2022-10-31T15:12:38;101185.75;;;17.06;92.01
54042;BME280;41156;51.508;5.406;2022-10-31T15:15:39;101175.50;;;16.96;91.94
54042;BME280;41156;51.508;5.406;2022-10-31T15:18:48;101175.91;;;16.88;92.16
54042;BME280;41156;51.508;5.406;2022-10-31T15:21:51;101164.31;;;16.81;93.00
54042;BME280;41156;51.508;5.406;2022-10-31T15:24:53;101176.69;;;16.72;92.56
54042;BME280;41156;51.508;5.406;2022-10-31T15:27:56;101158.38;;;16.67;92.86
54042;BME280;41156;51.508;5.406;2022-10-31T15:31:00;101158.00;;;16.63;93.18
54042;BME280;41156;51.508;5.406;2022-10-31T15:34:05;101160.66;;;16.58;92.83
54042;BME280;41156;51.508;5.406;2022-10-31T15:37:14;101161.06;;;16.50;94.06
54042;BME280;41156;51.508;5.406;2022-10-31T15:40:17;101155.28;;;16.46;94.17
54042;BME280;41156;51.508;5.406;2022-10-31T15:43:19;101152.47;;;16.41;93.74
54042;BME280;41156;51.508;5.406;2022-10-31T15:46:19;101153.19;;;16.37;94.38
54042;BME280;41156;51.508;5.406;2022-10-31T15:49:28;101148.50;;;16.32;95.02
54042;BME280;41156;51.508;5.406;2022-10-31T15:52:40;101151.16;;;16.27;95.22
54042;BME280;41156;51.508;5.406;2022-10-31T15:55:47;101148.81;;;16.19;94.68
54042;BME280;41156;51.508;5.406;2022-10-31T15:58:50;101147.88;;;16.13;94.76
54042;BME280;41156;51.508;5.406;2022-10-31T16:01:59;101139.84;;;16.06;95.26
54042;BME280;41156;51.508;5.406;2022-10-31T16:05:01;101146.63;;;16.04;95.33
54042;BME280;41156;51.508;5.406;2022-10-31T16:08:01;101140.47;;;15.97;95.71
54042;BME280;41156;51.508;5.406;2022-10-31T16:17:13;101133.09;;;15.80;96.53
54042;BME280;41156;51.508;5.406;2022-10-31T16:20:36;101123.75;;;15.76;97.29
54042;BME280;41156;51.508;5.406;2022-10-31T16:23:43;101124.69;;;15.70;96.49
54042;BME280;41156;51.508;5.406;2022-10-31T16:26:51;101112.63;;;15.66;97.11
54042;BME280;41156;51.508;5.406;2022-10-31T16:29:52;101110.38;;;15.63;97.95
54042;BME280;41156;51.508;5.406;2022-10-31T16:32:58;101110.28;;;15.58;96.95
54042;BME280;41156;51.508;5.406;2022-10-31T16:35:59;101111.81;;;15.53;97.04
54042;BME280;41156;51.508;5.406;2022-10-31T16:39:03;101109.59;;;15.50;96.68
54042;BME280;41156;51.508;5.406;2022-10-31T16:42:03;101112.56;;;15.49;97.27
54042;BME280;41156;51.508;5.406;2022-10-31T16:45:08;101104.63;;;15.47;97.79
54042;BME280;41156;51.508;5.406;2022-10-31T16:48:15;101112.81;;;15.47;97.66
54042;BME280;41156;51.508;5.406;2022-10-31T16:51:16;101111.72;;;15.48;97.62
54042;BME280;41156;51.508;5.406;2022-10-31T16:54:17;101102.97;;;15.46;97.50
54042;BME280;41156;51.508;5.406;2022-10-31T16:57:20;101097.03;;;15.49;97.36
54042;BME280;41156;51.508;5.406;2022-10-31T17:00:24;101098.72;;;15.50;97.30
54042;BME280;41156;51.508;5.406;2022-10-31T17:03:25;101094.91;;;15.51;97.57
54042;BME280;41156;51.508;5.406;2022-10-31T17:06:26;101091.13;;;15.52;97.20
54042;BME280;41156;51.508;5.406;2022-10-31T17:09:27;101092.19;;;15.51;96.80
54042;BME280;41156;51.508;5.406;2022-10-31T17:12:27;101077.97;;;15.49;97.23
54042;BME280;41156;51.508;5.406;2022-10-31T17:15:35;101091.03;;;15.47;96.86
54042;BME280;41156;51.508;5.406;2022-10-31T17:18:37;101071.97;;;15.47;97.04
54042;BME280;41156;51.508;5.406;2022-10-31T17:21:38;101074.06;;;15.45;96.46